createdAt,value
2018-08-12T00:00:26.676Z,4.23
2018-08-12T00:02:56.295Z,3.50
2018-08-12T00:05:24.871Z,4.17
2018-08-12T00:07:53.394Z,4.07
2018-08-12T00:10:22.380Z,4.70
2018-08-12T00:12:50.854Z,3.97
2018-08-12T00:15:21.148Z,4.47
2018-08-12T00:17:49.671Z,3.47
2018-08-12T00:20:22.564Z,3.80
2018-08-12T00:22:51.668Z,3.23
2018-08-12T00:25:21.724Z,3.70
2018-08-12T00:27:50.145Z,3.90
2018-08-12T00:30:19.420Z,3.63
2018-08-12T00:32:47.873Z,4.17
2018-08-12T00:35:17.504Z,3.90
2018-08-12T00:37:45.966Z,3.80
2018-08-12T00:40:15.680Z,4.10
2018-08-12T00:42:44.672Z,3.87
2018-08-12T00:45:17.561Z,4.50
2018-08-12T00:47:46.319Z,4.23
2018-08-12T00:50:15.664Z,4.63
2018-08-12T00:52:44.170Z,5.30
2018-08-12T00:55:14.276Z,5.50
2018-08-12T00:57:43.828Z,5.37
2018-08-12T01:00:16.257Z,5.10
2018-08-12T01:02:44.712Z,4.13
2018-08-12T01:05:14.910Z,4.60
2018-08-12T01:07:44.135Z,4.37
2018-08-12T01:10:13.169Z,4.60
2018-08-12T01:12:41.724Z,4.30
2018-08-12T01:15:13.477Z,4.10
2018-08-12T01:17:42.278Z,3.83
2018-08-12T01:20:13.651Z,4.07
2018-08-12T01:22:42.167Z,3.80
2018-08-12T01:25:11.483Z,3.33
2018-08-12T01:27:39.931Z,3.80
2018-08-12T01:30:13.021Z,3.73
2018-08-12T01:32:41.678Z,4.10
2018-08-12T01:35:11.332Z,3.77
2018-08-12T01:37:40.243Z,3.57
2018-08-12T01:40:11.045Z,4.50
2018-08-12T01:42:39.925Z,4.53
2018-08-12T01:45:09.297Z,6.73
2018-08-12T01:47:37.727Z,6.83
2018-08-12T01:50:06.691Z,5.10
2018-08-12T01:52:35.127Z,6.03
2018-08-12T01:55:03.623Z,5.77
2018-08-12T01:57:32.073Z,6.03
2018-08-12T02:00:00.556Z,7.20
2018-08-12T02:02:28.979Z,6.57
2018-08-12T02:04:57.457Z,5.00
2018-08-12T02:07:25.961Z,4.60
2018-08-12T02:09:54.432Z,6.00
2018-08-12T02:12:22.928Z,5.73
2018-08-12T02:14:51.360Z,4.73
2018-08-12T02:17:19.803Z,6.50
2018-08-12T02:19:48.169Z,5.10
2018-08-12T02:22:16.575Z,4.70
2018-08-12T02:24:45.073Z,5.57
2018-08-12T02:27:13.530Z,4.60
2018-08-12T02:29:41.905Z,5.60
2018-08-12T02:32:10.312Z,4.13
2018-08-12T02:34:38.693Z,4.60
2018-08-12T02:37:07.230Z,5.03
2018-08-12T02:39:35.588Z,4.73
2018-08-12T02:42:04.083Z,5.00
2018-08-12T02:44:32.528Z,4.67
2018-08-12T02:47:00.962Z,5.40
2018-08-12T02:49:29.340Z,5.37
2018-08-12T02:51:57.807Z,5.53
2018-08-12T02:54:26.193Z,5.10
2018-08-12T02:56:54.664Z,5.30
2018-08-12T02:59:23.103Z,5.47
2018-08-12T03:01:51.787Z,5.20
2018-08-12T03:04:20.235Z,4.27
2018-08-12T03:06:48.672Z,5.37
2018-08-12T03:09:17.057Z,5.60
2018-08-12T03:11:45.488Z,4.60
2018-08-12T03:14:13.982Z,4.97
2018-08-12T03:16:42.402Z,5.13
2018-08-12T03:19:10.868Z,4.37
2018-08-12T03:21:39.301Z,4.57
2018-08-12T03:24:07.758Z,4.50
2018-08-12T03:26:36.202Z,4.20
2018-08-12T03:29:04.712Z,4.00
2018-08-12T03:31:33.102Z,4.17
2018-08-12T03:34:01.556Z,3.83
2018-08-12T03:36:30.012Z,4.57
2018-08-12T03:38:58.436Z,4.20
2018-08-12T03:41:26.826Z,3.57
2018-08-12T03:43:55.271Z,4.30
2018-08-12T03:46:23.692Z,4.17
2018-08-12T03:48:52.192Z,4.20
2018-08-12T03:51:20.602Z,4.97
2018-08-12T03:53:48.992Z,4.40
2018-08-12T03:56:17.415Z,4.70
2018-08-12T03:58:45.875Z,4.17
2018-08-12T04:01:14.295Z,3.83
2018-08-12T04:03:42.738Z,3.83
2018-08-12T04:06:11.239Z,3.90
2018-08-12T04:08:39.609Z,4.43
2018-08-12T04:11:08.009Z,4.17
2018-08-12T04:13:36.429Z,5.10
2018-08-12T04:16:04.888Z,4.37
2018-08-12T04:18:33.352Z,4.93
2018-08-12T04:21:01.782Z,4.70
2018-08-12T04:23:30.240Z,4.57
2018-08-12T04:25:58.728Z,4.00
2018-08-12T04:28:27.137Z,4.47
2018-08-12T04:30:55.532Z,3.87
2018-08-12T04:33:23.987Z,4.97
2018-08-12T04:35:52.337Z,4.10
2018-08-12T04:38:20.749Z,4.20
2018-08-12T04:40:49.148Z,4.27
2018-08-12T04:43:17.575Z,4.57
2018-08-12T04:45:45.971Z,4.40
2018-08-12T04:48:14.424Z,4.13
2018-08-12T04:50:42.824Z,3.87
2018-08-12T04:53:11.302Z,4.40
2018-08-12T04:55:39.733Z,5.10
2018-08-12T04:58:08.190Z,5.07
2018-08-12T05:00:36.599Z,5.10
2018-08-12T05:03:05.000Z,4.73
2018-08-12T05:05:33.471Z,4.33
2018-08-12T05:08:01.868Z,3.40
2018-08-12T05:10:30.366Z,3.63
2018-08-12T05:12:58.744Z,3.87
2018-08-12T05:15:27.260Z,3.50
2018-08-12T05:17:55.675Z,2.90
2018-08-12T05:20:24.097Z,3.00
2018-08-12T05:22:52.485Z,3.30
2018-08-12T05:25:20.903Z,3.80
2018-08-12T05:27:49.302Z,3.20
2018-08-12T05:30:17.717Z,2.70
2018-08-12T05:32:46.093Z,3.13
2018-08-12T05:35:14.613Z,3.30
2018-08-12T05:37:43.500Z,2.73
2018-08-12T05:40:12.932Z,2.70
2018-08-12T05:42:41.465Z,2.63
2018-08-12T05:45:10.736Z,2.30
2018-08-12T05:47:39.978Z,2.33
2018-08-12T05:50:09.705Z,2.10
2018-08-12T05:52:38.156Z,2.13
2018-08-12T05:55:07.384Z,2.53
2018-08-12T05:57:35.966Z,2.27
2018-08-12T06:00:05.356Z,2.13
2018-08-12T06:02:33.808Z,2.33
2018-08-12T06:05:02.260Z,2.27
2018-08-12T06:07:30.728Z,2.50
2018-08-12T06:09:59.138Z,2.40
2018-08-12T06:12:27.571Z,2.50
2018-08-12T06:14:56.003Z,2.53
2018-08-12T06:17:24.512Z,2.77
2018-08-12T06:19:52.970Z,3.10
2018-08-12T06:22:21.377Z,2.50
2018-08-12T06:24:49.769Z,2.80
2018-08-12T06:27:18.216Z,3.07
2018-08-12T06:29:46.620Z,2.70
2018-08-12T06:32:15.586Z,3.40
2018-08-12T06:34:44.018Z,5.23
2018-08-12T06:37:12.587Z,3.53
2018-08-12T06:39:41.072Z,3.27
2018-08-12T06:42:09.499Z,2.93
2018-08-12T06:44:38.021Z,3.50
2018-08-12T06:47:06.462Z,3.23
2018-08-12T06:49:35.050Z,3.17
2018-08-12T06:52:03.594Z,3.33
2018-08-12T06:54:32.004Z,3.57
2018-08-12T06:57:00.426Z,3.17
2018-08-12T06:59:28.913Z,3.90
2018-08-12T07:01:57.282Z,8.00
2018-08-12T07:04:25.838Z,3.27
2018-08-12T07:06:54.251Z,3.20
2018-08-12T07:09:22.763Z,2.77
2018-08-12T07:11:51.237Z,3.07
2018-08-12T07:14:19.715Z,3.17
2018-08-12T07:16:48.103Z,2.77
2018-08-12T07:19:16.555Z,2.73
2018-08-12T07:21:44.994Z,2.97
2018-08-12T07:24:13.388Z,3.50
2018-08-12T07:26:41.884Z,21.70
2018-08-12T07:29:10.285Z,4.20
2018-08-12T07:31:38.776Z,3.97
2018-08-12T07:34:07.308Z,3.10
2018-08-12T07:36:35.713Z,3.43
2018-08-12T07:39:05.800Z,3.13
2018-08-12T07:41:34.222Z,2.20
2018-08-12T07:44:02.681Z,2.50
2018-08-12T07:46:31.125Z,2.53
2018-08-12T07:48:59.623Z,2.40
2018-08-12T07:51:28.070Z,2.70
2018-08-12T07:53:56.452Z,2.00
2018-08-12T07:56:24.936Z,2.70
2018-08-12T07:58:53.451Z,2.83
2018-08-12T08:01:21.971Z,2.20
2018-08-12T08:03:50.429Z,2.20
2018-08-12T08:06:19.031Z,2.47
2018-08-12T08:08:47.441Z,2.80
2018-08-12T08:11:15.805Z,3.20
2018-08-12T08:13:44.312Z,2.73
2018-08-12T08:16:12.725Z,2.17
2018-08-12T08:18:41.219Z,2.07
2018-08-12T08:21:09.663Z,2.40
2018-08-12T08:23:38.117Z,2.43
2018-08-12T08:26:06.623Z,2.60
2018-08-12T08:28:35.151Z,2.50
2018-08-12T08:31:03.588Z,2.00
2018-08-12T08:33:32.024Z,2.13
2018-08-12T08:36:00.496Z,3.10
2018-08-12T08:38:28.984Z,2.83
2018-08-12T08:40:57.430Z,2.10
2018-08-12T08:43:25.859Z,3.37
2018-08-12T08:45:54.346Z,17.13
2018-08-12T08:48:22.796Z,2.97
2018-08-12T08:50:51.261Z,20.60
2018-08-12T08:53:19.721Z,4.90
2018-08-12T08:55:48.319Z,3.40
2018-08-12T08:58:16.732Z,1.77
2018-08-12T09:00:45.454Z,1.80
2018-08-12T09:03:13.983Z,1.57
2018-08-12T09:05:42.509Z,2.07
2018-08-12T09:08:11.099Z,1.63
2018-08-12T09:10:39.416Z,2.00
2018-08-12T09:13:08.040Z,1.83
2018-08-12T09:15:36.546Z,2.63
2018-08-12T09:18:05.245Z,3.17
2018-08-12T09:20:33.703Z,2.87
2018-08-12T09:23:02.182Z,2.03
2018-08-12T09:25:30.629Z,2.07
2018-08-12T09:27:59.097Z,2.43
2018-08-12T09:30:27.520Z,2.20
2018-08-12T09:32:55.942Z,2.87
2018-08-12T09:35:24.446Z,1.77
2018-08-12T09:37:52.900Z,3.33
2018-08-12T09:40:21.336Z,2.40
2018-08-12T09:42:50.796Z,1.57
2018-08-12T09:45:20.744Z,1.63
2018-08-12T09:47:49.228Z,2.07
2018-08-12T09:50:19.025Z,1.60
2018-08-12T09:52:48.483Z,1.70
2018-08-12T09:55:17.533Z,1.80
2018-08-12T09:57:45.974Z,1.50
2018-08-12T10:00:20.961Z,1.40
2018-08-12T10:02:50.468Z,1.20
2018-08-12T10:05:19.333Z,1.70
2018-08-12T10:07:47.816Z,1.30
2018-08-12T10:10:16.807Z,1.40
2018-08-12T10:12:45.435Z,1.70
2018-08-12T10:15:14.717Z,2.50
2018-08-12T10:17:44.767Z,2.20
2018-08-12T10:20:13.308Z,1.70
2018-08-12T10:22:41.848Z,3.33
2018-08-12T10:25:10.671Z,3.10
2018-08-12T10:27:39.192Z,3.43
2018-08-12T10:30:10.894Z,1.77
2018-08-12T10:32:39.667Z,1.50
2018-08-12T10:35:09.424Z,2.30
2018-08-12T10:37:37.980Z,3.10
2018-08-12T10:40:08.897Z,1.73
2018-08-12T10:42:37.328Z,1.40
2018-08-12T10:47:49.164Z,1.30
2018-08-12T10:50:19.873Z,1.57
2018-08-12T10:52:49.132Z,2.57
2018-08-12T10:55:19.317Z,2.50
2018-08-12T10:57:49.212Z,1.37
2018-08-12T11:00:22.097Z,1.60
2018-08-12T11:02:50.686Z,1.80
2018-08-12T11:05:19.160Z,6.03
2018-08-12T11:07:50.499Z,2.17
2018-08-12T11:10:19.057Z,1.43
2018-08-12T11:12:48.834Z,1.40
2018-08-12T11:15:19.338Z,1.43
2018-08-12T11:17:47.846Z,1.90
2018-08-12T11:20:16.300Z,1.70
2018-08-12T11:22:44.748Z,7.23
2018-08-12T11:25:12.639Z,13.70
2018-08-12T11:27:41.227Z,7.90
2018-08-12T11:30:11.480Z,2.43
2018-08-12T11:32:40.370Z,1.40
2018-08-12T11:35:10.688Z,5.87
2018-08-12T11:37:39.694Z,4.33
2018-08-12T11:40:09.522Z,1.50
2018-08-12T11:42:36.924Z,1.40
2018-08-12T11:45:07.820Z,1.50
2018-08-12T11:47:36.446Z,1.70
2018-08-12T11:50:06.081Z,1.20
2018-08-12T11:52:34.522Z,1.30
2018-08-12T11:55:03.062Z,1.77
2018-08-12T11:57:31.537Z,1.47
2018-08-12T11:59:59.994Z,1.67
2018-08-12T12:02:28.583Z,1.40
2018-08-12T12:04:57.026Z,1.50
2018-08-12T12:07:25.472Z,1.80
2018-08-12T12:09:54.809Z,3.43
2018-08-12T12:12:23.880Z,1.50
2018-08-12T12:14:52.949Z,1.60
2018-08-12T12:17:21.751Z,1.20
2018-08-12T12:19:50.175Z,1.30
2018-08-12T12:22:19.611Z,1.13
2018-08-12T12:24:48.064Z,1.30
2018-08-12T12:27:16.587Z,1.60
2018-08-12T12:29:45.053Z,1.67
2018-08-12T12:32:13.629Z,1.20
2018-08-12T12:34:42.503Z,1.60
2018-08-12T12:37:11.161Z,1.80
2018-08-12T12:39:39.589Z,1.30
2018-08-12T12:42:08.168Z,1.30
2018-08-12T12:44:36.600Z,1.20
2018-08-12T12:47:05.117Z,2.73
2018-08-12T12:49:33.589Z,1.43
2018-08-12T12:52:01.996Z,1.40
2018-08-12T12:54:30.471Z,1.60
2018-08-12T12:56:59.075Z,1.10
2018-08-12T12:59:27.652Z,1.40
2018-08-12T13:01:56.119Z,1.63
2018-08-12T13:04:25.217Z,1.23
2018-08-12T13:06:56.398Z,3.30
2018-08-12T13:09:25.743Z,1.67
2018-08-12T13:11:55.955Z,1.60
2018-08-12T13:14:24.528Z,19.50
2018-08-12T13:16:53.041Z,16.20
2018-08-12T13:19:21.548Z,2.37
2018-08-12T13:21:50.006Z,10.30
2018-08-12T13:24:18.454Z,3.57
2018-08-12T13:26:46.941Z,2.43
2018-08-12T13:29:15.448Z,1.30
2018-08-12T13:31:43.972Z,1.17
2018-08-12T13:34:12.546Z,1.50
2018-08-12T13:36:40.984Z,1.47
2018-08-12T13:39:11.532Z,1.60
2018-08-12T13:41:40.014Z,1.53
2018-08-12T13:44:08.521Z,1.80
2018-08-12T13:46:37.048Z,2.17
2018-08-12T13:49:05.715Z,2.40
2018-08-12T13:51:34.210Z,8.07
2018-08-12T13:54:02.748Z,5.17
2018-08-12T13:56:31.366Z,10.90
2018-08-12T13:58:59.956Z,5.10
2018-08-12T14:01:28.392Z,6.30
2018-08-12T14:03:56.812Z,3.03
2018-08-12T14:06:25.472Z,3.60
2018-08-12T14:08:53.955Z,5.80
2018-08-12T14:11:22.426Z,2.23
2018-08-12T14:13:51.004Z,2.60
2018-08-12T14:16:19.383Z,1.90
2018-08-12T14:18:47.872Z,2.10
2018-08-12T14:21:16.394Z,2.10
2018-08-12T14:23:44.777Z,4.80
2018-08-12T14:26:13.460Z,4.87
2018-08-12T14:28:42.049Z,3.77
2018-08-12T14:31:12.189Z,5.73
2018-08-12T14:33:40.890Z,4.30
2018-08-12T14:36:09.409Z,5.20
2018-08-12T14:38:37.848Z,4.40
2018-08-12T14:41:06.361Z,3.00
2018-08-12T14:43:34.896Z,2.70
2018-08-12T14:46:03.770Z,2.90
2018-08-12T14:48:32.225Z,7.97
2018-08-12T14:51:01.051Z,6.33
2018-08-12T14:53:29.508Z,4.07
2018-08-12T14:55:58.170Z,1.90
2018-08-12T14:58:26.720Z,1.40
2018-08-12T15:00:55.241Z,11.53
2018-08-12T15:03:23.759Z,19.37
2018-08-12T15:05:52.369Z,3.80
2018-08-12T15:08:20.909Z,4.07
2018-08-12T15:10:49.360Z,5.53
2018-08-12T15:13:17.881Z,18.93
2018-08-12T15:15:46.432Z,31.10
2018-08-12T15:18:15.163Z,13.63
2018-08-12T15:20:43.797Z,34.53
2018-08-12T15:23:12.391Z,23.53
2018-08-12T15:25:40.907Z,39.37
2018-08-12T15:28:09.636Z,12.70
2018-08-12T15:30:38.324Z,27.93
2018-08-12T15:33:07.100Z,16.17
2018-08-12T15:35:40.829Z,39.60
2018-08-12T15:38:09.566Z,18.40
2018-08-12T15:40:38.163Z,23.30
2018-08-12T15:43:06.809Z,29.07
2018-08-12T15:45:35.461Z,85.87
2018-08-12T15:48:05.299Z,68.33
2018-08-12T15:50:34.093Z,36.50
2018-08-12T15:53:02.596Z,25.57
2018-08-12T15:55:31.312Z,5.20
2018-08-12T15:57:59.921Z,7.90
2018-08-12T16:00:29.817Z,3.50
2018-08-12T16:02:58.357Z,3.57
2018-08-12T16:05:26.937Z,3.70
2018-08-12T16:07:55.448Z,3.03
2018-08-12T16:10:24.565Z,2.20
2018-08-12T16:12:54.082Z,2.50
2018-08-12T16:15:23.120Z,5.40
2018-08-12T16:17:52.121Z,5.13
2018-08-12T16:20:20.652Z,8.90
2018-08-12T16:22:49.222Z,10.50
2018-08-12T16:25:19.174Z,4.37
2018-08-12T16:27:47.708Z,2.30
2018-08-12T16:30:17.610Z,4.20
2018-08-12T16:32:46.285Z,9.57
2018-08-12T16:35:16.023Z,9.77
2018-08-12T16:37:45.184Z,11.17
2018-08-12T16:40:16.847Z,6.20
2018-08-12T16:42:45.898Z,6.00
2018-08-12T16:45:15.368Z,5.60
2018-08-12T16:47:44.466Z,3.27
2018-08-12T16:50:13.192Z,7.00
2018-08-12T16:52:42.118Z,6.90
2018-08-12T16:55:12.787Z,7.50
2018-08-12T16:57:41.634Z,7.43
2018-08-12T17:00:16.601Z,11.00
2018-08-12T17:02:45.770Z,14.83
2018-08-12T17:05:16.520Z,16.73
2018-08-12T17:07:45.240Z,12.50
2018-08-12T17:10:14.704Z,6.80
2018-08-12T17:12:43.305Z,8.57
2018-08-12T17:15:13.960Z,8.60
2018-08-12T17:17:42.590Z,14.97
2018-08-12T17:20:12.884Z,4.07
2018-08-12T17:22:42.290Z,3.10
2018-08-12T17:25:10.792Z,3.67
2018-08-12T17:27:39.259Z,8.10
2018-08-12T17:30:09.327Z,6.60
2018-08-12T17:32:38.073Z,15.20
2018-08-12T17:35:07.959Z,22.90
2018-08-12T17:37:36.480Z,8.53
2018-08-12T17:40:07.736Z,7.63
2018-08-12T17:42:36.358Z,9.67
2018-08-12T17:45:06.167Z,10.70
2018-08-12T17:47:34.636Z,7.50
2018-08-12T17:50:03.925Z,11.37
2018-08-12T17:52:32.586Z,12.50
2018-08-12T17:55:01.177Z,14.80
2018-08-12T17:57:30.093Z,17.53
2018-08-12T17:59:58.627Z,14.57
2018-08-12T18:02:27.100Z,9.50
2018-08-12T18:04:55.585Z,18.53
2018-08-12T18:07:24.288Z,15.57
2018-08-12T18:09:52.826Z,13.40
2018-08-12T18:12:21.496Z,20.73
2018-08-12T18:14:50.101Z,16.70
2018-08-12T18:17:18.655Z,17.87
2018-08-12T18:19:47.261Z,21.90
2018-08-12T18:22:15.744Z,15.13
2018-08-12T18:24:44.378Z,26.27
2018-08-12T18:27:12.996Z,21.00
2018-08-12T18:29:41.540Z,19.83
2018-08-12T18:32:10.102Z,30.60
2018-08-12T18:34:38.603Z,22.67
2018-08-12T18:37:07.318Z,16.57
2018-08-12T18:39:35.760Z,12.53
2018-08-12T18:42:04.298Z,30.17
2018-08-12T18:44:32.700Z,18.70
2018-08-12T18:47:01.134Z,13.93
2018-08-12T18:49:29.977Z,19.00
2018-08-12T18:51:58.510Z,11.83
2018-08-12T18:54:27.102Z,12.17
2018-08-12T18:56:55.826Z,42.30
2018-08-12T18:59:24.276Z,49.17
2018-08-12T19:01:52.757Z,17.07
2018-08-12T19:04:21.200Z,10.57
2018-08-12T19:06:50.448Z,10.10
2018-08-12T19:09:19.534Z,15.53
2018-08-12T19:11:48.015Z,16.90
2018-08-12T19:14:16.545Z,6.60
2018-08-12T19:16:45.085Z,34.43
2018-08-12T19:19:14.156Z,9.60
2018-08-12T19:21:42.650Z,20.00
2018-08-12T19:24:11.140Z,9.87
2018-08-12T19:26:39.633Z,4.40
2018-08-12T19:29:08.459Z,4.40
2018-08-12T19:31:36.943Z,3.70
2018-08-12T19:34:05.512Z,4.63
2018-08-12T19:36:34.027Z,39.40
2018-08-12T19:39:02.587Z,6.27
2018-08-12T19:41:31.023Z,5.83
2018-08-12T19:43:59.486Z,2.90
2018-08-12T19:46:28.064Z,2.90
2018-08-12T19:48:56.550Z,2.50
2018-08-12T19:51:25.046Z,2.43
2018-08-12T19:53:53.509Z,4.70
2018-08-12T19:56:22.060Z,3.47
2018-08-12T19:58:50.477Z,2.33
2018-08-12T20:01:19.008Z,7.10
2018-08-12T20:03:47.458Z,4.63
2018-08-12T20:06:15.921Z,2.60
2018-08-12T20:08:45.046Z,3.00
2018-08-12T20:11:13.814Z,2.67
2018-08-12T20:13:42.306Z,2.70
2018-08-12T20:16:11.106Z,2.60
2018-08-12T20:18:39.807Z,4.47
2018-08-12T20:21:08.219Z,14.30
2018-08-12T20:23:37.428Z,2.83
2018-08-12T20:26:05.944Z,2.80
2018-08-12T20:28:35.050Z,3.07
2018-08-12T20:31:03.596Z,8.33
2018-08-12T20:33:32.133Z,12.30
2018-08-12T20:36:00.576Z,3.70
2018-08-12T20:38:29.696Z,5.50
2018-08-12T20:40:58.615Z,4.07
2018-08-12T20:43:27.160Z,3.60
2018-08-12T20:45:55.700Z,2.77
2018-08-12T20:48:24.579Z,2.33
2018-08-12T20:50:53.048Z,2.20
2018-08-12T20:53:21.479Z,2.37
2018-08-12T20:55:50.174Z,2.50
2018-08-12T20:58:18.665Z,2.33
2018-08-12T21:00:47.104Z,3.70
2018-08-12T21:03:15.982Z,12.80
2018-08-12T21:05:44.460Z,8.97
2018-08-12T21:08:12.940Z,3.83
2018-08-12T21:10:41.439Z,3.70
2018-08-12T21:13:10.892Z,2.60
2018-08-12T21:15:39.383Z,2.10
2018-08-12T21:18:07.809Z,2.50
2018-08-12T21:20:36.490Z,2.77
2018-08-12T21:23:05.023Z,3.37
2018-08-12T21:25:33.612Z,2.57
2018-08-12T21:28:02.815Z,2.60
2018-08-12T21:30:31.264Z,2.60
2018-08-12T21:32:59.780Z,2.60
2018-08-12T21:35:28.928Z,3.30
2018-08-12T21:37:57.363Z,3.40
2018-08-12T21:40:25.871Z,2.90
2018-08-12T21:42:54.317Z,2.87
2018-08-12T21:45:22.763Z,2.00
2018-08-12T21:47:51.237Z,2.00
2018-08-12T21:50:19.614Z,2.30
2018-08-12T21:52:48.141Z,2.33
2018-08-12T21:55:16.517Z,2.30
2018-08-12T21:57:45.079Z,2.23
2018-08-12T22:00:15.183Z,2.07
2018-08-12T22:02:44.839Z,3.03
2018-08-12T22:05:14.100Z,2.83
2018-08-12T22:07:42.540Z,2.30
2018-08-12T22:10:11.082Z,2.00
2018-08-12T22:12:40.044Z,2.80
2018-08-12T22:15:09.172Z,2.03
2018-08-12T22:17:38.243Z,2.57
2018-08-12T22:20:06.791Z,2.90
2018-08-12T22:22:35.219Z,2.73
2018-08-12T22:25:03.745Z,2.40
2018-08-12T22:27:33.194Z,2.07
2018-08-12T22:30:01.643Z,2.40
2018-08-12T22:32:30.107Z,2.53
2018-08-12T22:34:58.526Z,2.20
2018-08-12T22:37:26.980Z,2.47
2018-08-12T22:39:55.447Z,2.17
2018-08-12T22:42:23.923Z,2.07
2018-08-12T22:44:52.482Z,2.40
2018-08-12T22:47:20.938Z,2.23
2018-08-12T22:49:49.376Z,2.00
2018-08-12T22:52:17.805Z,2.27
2018-08-12T22:54:46.212Z,2.73
2018-08-12T22:57:14.709Z,2.03
2018-08-12T22:59:43.194Z,2.17
2018-08-12T23:02:11.656Z,2.53
2018-08-12T23:04:40.119Z,2.00
2018-08-12T23:07:08.559Z,5.30
2018-08-12T23:09:37.340Z,3.43
2018-08-12T23:12:05.948Z,2.60
2018-08-12T23:14:34.576Z,2.57
2018-08-12T23:17:03.396Z,2.40
2018-08-12T23:19:32.101Z,2.30
2018-08-12T23:22:00.607Z,1.90
2018-08-12T23:24:29.059Z,2.03
2018-08-12T23:26:57.469Z,2.10
2018-08-12T23:29:25.876Z,2.30
2018-08-12T23:31:54.295Z,2.30
2018-08-12T23:34:22.683Z,2.07
2018-08-12T23:36:51.143Z,2.30
2018-08-12T23:39:19.575Z,2.10
2018-08-12T23:41:48.980Z,1.90
2018-08-12T23:44:17.459Z,2.23
2018-08-12T23:46:46.247Z,2.00
2018-08-12T23:49:14.775Z,2.43
2018-08-12T23:51:43.213Z,2.30
2018-08-12T23:54:11.704Z,2.23
2018-08-12T23:56:40.142Z,2.30
2018-08-12T23:59:08.841Z,2.37
